5YNNV HKKE-HKOK
Flight info
| Callsign | 5YNNV |
|---|---|
| Flight time | N/A |
| Altitude | FL105 |
| Route | DCT HKOK |
| Aircraft | C208/M-VGD/C |
Departure
| Time | 2025-04-22 13:03 |
|---|---|
| Airport | Keekorok Airport (HKKE) |
Arrival
| Time | N/A |
|---|---|
| Airport | Mara-Olkiombo Airport (HKOK) |
| Time | Latitude | Longitude | Altitude | Speed | Heading |
|---|---|---|---|---|---|
| 2025-04-22 12:54 | -1.58596 | 35.25883 | 5538 ft | 0 kts | 147° |
| 2025-04-22 12:58 | -1.58608 | 35.25887 | 5539 ft | 4 kts | 183° |
| 2025-04-22 12:58 | -1.58629 | 35.25700 | 5525 ft | 21 kts | 270° |
| 2025-04-22 12:59 | -1.58600 | 35.25368 | 5496 ft | 27 kts | 275° |
| 2025-04-22 12:59 | -1.58588 | 35.25060 | 5476 ft | 9 kts | 319° |
| 2025-04-22 13:00 | -1.58580 | 35.25063 | 5476 ft | 3 kts | 95° |
| 2025-04-22 13:00 | -1.58634 | 35.25813 | 5535 ft | 99 kts | 97° |
| 2025-04-22 13:01 | -1.58778 | 35.27346 | 6047 ft | 121 kts | 71° |
| 2025-04-22 13:01 | -1.57364 | 35.27140 | 6444 ft | 147 kts | 282° |
| 2025-04-22 13:02 | -1.58103 | 35.25485 | 7141 ft | 131 kts | 210° |
| 2025-04-22 13:02 | -1.59576 | 35.25883 | 7771 ft | 120 kts | 130° |
| 2025-04-22 13:03 | -1.60705 | 35.27123 | 8233 ft | 133 kts | 130° |
| 2025-04-22 13:03 | -1.61998 | 35.28523 | 8543 ft | 147 kts | 130° |
| 2025-04-22 13:04 | -1.63357 | 35.29992 | 8835 ft | 154 kts | 130° |
| 2025-04-22 13:04 | -1.64528 | 35.31256 | 9076 ft | 157 kts | 130° |
| 2025-04-22 13:05 | -1.65485 | 35.32286 | 9268 ft | 158 kts | 131° |
| 2025-04-22 13:05 | -1.67497 | 35.34442 | 9634 ft | 162 kts | 130° |
| 2025-04-22 13:06 | -1.71009 | 35.38215 | 9646 ft | 179 kts | 131° |
| 2025-04-22 13:07 | -1.72707 | 35.40044 | 9645 ft | 180 kts | 131° |
| 2025-04-22 13:07 | -1.74400 | 35.41870 | 9645 ft | 181 kts | 131° |
| 2025-04-22 13:08 | -1.76101 | 35.43704 | 9645 ft | 181 kts | 131° |
| 2025-04-22 13:08 | -1.77686 | 35.45588 | 9645 ft | 181 kts | 127° |
| 2025-04-22 13:09 | -1.78930 | 35.47237 | 9646 ft | 180 kts | 122° |
| 2025-04-22 13:10 | -1.81085 | 35.50639 | 9645 ft | 180 kts | 120° |
| 2025-04-22 13:10 | -1.82398 | 35.52732 | 9645 ft | 180 kts | 120° |
| 2025-04-22 13:11 | -1.83650 | 35.54728 | 9645 ft | 180 kts | 120° |
| 2025-04-22 13:11 | -1.84800 | 35.56561 | 9645 ft | 180 kts | 120° |
| 2025-04-22 13:12 | -1.85965 | 35.58420 | 9645 ft | 180 kts | 120° |
| 2025-04-22 13:12 | -1.87072 | 35.60186 | 9645 ft | 180 kts | 120° |
| 2025-04-22 13:13 | -1.87753 | 35.61271 | 9644 ft | 180 kts | 120° |
| 2025-04-22 13:13 | -1.89824 | 35.64577 | 9645 ft | 180 kts | 120° |
| 2025-04-22 13:14 | -1.90506 | 35.65666 | 9646 ft | 180 kts | 120° |
| 2025-04-22 13:15 | -1.93516 | 35.70480 | 9568 ft | 182 kts | 121° |
| 2025-04-22 13:15 | -1.95155 | 35.73133 | 9565 ft | 179 kts | 118° |
| 2025-04-22 13:16 | -1.96348 | 35.75924 | 9565 ft | 179 kts | 110° |
| 2025-04-22 13:16 | -1.97270 | 35.78235 | 9565 ft | 179 kts | 110° |
| 2025-04-22 13:17 | -1.97734 | 35.79391 | 9565 ft | 179 kts | 110° |
| 2025-04-22 13:17 | -1.99116 | 35.82847 | 9565 ft | 179 kts | 110° |
| 2025-04-22 13:18 | -1.99266 | 35.83226 | 9565 ft | 179 kts | 110° |